Time;durP1;ratioP1;P1;durP2;ratioP2;P2;SDS_P1;SDS_P2;PMS_P1;PMS_P2;Temp;Humidity;BMP_temperature;BMP_pressure;BME280_temperature;BME280_humidity;BME280_pressure;Samples;Min_cycle;Max_cycle;Signal;HPM_P1;HPM_P2
2022/07/06 00:02:17;;;;;;;2.13;1.20;;;;;;;11.34;91.76;102742.09;5053037;28;20040;-70
2022/07/06 00:04:42;;;;;;;6.90;1.35;;;;;;;11.34;92.00;102744.75;5053982;28;20029;-70
2022/07/06 00:07:08;;;;;;;1.45;0.98;;;;;;;11.33;91.67;102746.56;5054379;28;20171;-70
2022/07/06 00:09:33;;;;;;;3.67;1.00;;;;;;;11.32;91.64;102749.34;5054381;28;20064;-70
2022/07/06 00:11:59;;;;;;;2.38;1.10;;;;;;;11.31;91.72;102747.63;5053942;28;20090;-70
2022/07/06 00:14:24;;;;;;;3.55;1.13;;;;;;;11.27;91.60;102746.94;5054021;28;20040;-69
2022/07/06 00:16:50;;;;;;;5.78;1.40;;;;;;;11.24;91.62;102741.81;5053946;28;20140;-70
2022/07/06 00:19:15;;;;;;;3.83;1.30;;;;;;;11.22;91.80;102743.72;5054446;28;20057;-69
2022/07/06 00:21:41;;;;;;;2.67;1.45;;;;;;;11.19;92.37;102742.09;5053947;28;20037;-70
2022/07/06 00:24:06;;;;;;;7.40;1.80;;;;;;;11.17;92.37;102743.16;5053236;28;20400;-70
2022/07/06 00:26:32;;;;;;;5.20;1.55;;;;;;;11.12;92.75;102735.44;5054362;28;20416;-70
2022/07/06 00:28:57;;;;;;;5.65;1.60;;;;;;;11.13;92.21;102734.50;5054658;28;20353;-70
2022/07/06 00:31:23;;;;;;;5.70;1.70;;;;;;;11.10;92.16;102735.53;5054300;28;20453;-70
2022/07/06 00:33:48;;;;;;;5.07;1.42;;;;;;;11.12;92.37;102740.75;5053735;28;20028;-69
2022/07/06 00:36:13;;;;;;;5.15;1.23;;;;;;;11.13;92.58;102749.63;5053583;28;20060;-69
2022/07/06 00:38:39;;;;;;;5.47;1.60;;;;;;;11.09;92.36;102733.84;5054158;28;20038;-73
2022/07/06 00:41:04;;;;;;;2.40;1.10;;;;;;;11.06;93.00;102746.47;5053343;28;20186;-70
2022/07/06 00:43:56;;;;;;;1.88;0.98;;;;;;;10.98;92.30;102741.63;5053284;28;20049;-71
2022/07/06 00:46:32;;;;;;;5.18;1.27;;;;;;;10.99;93.39;102742.47;5053656;28;20057;-71
2022/07/06 00:48:58;;;;;;;5.18;1.10;;;;;;;11.01;93.16;102737.94;5054070;28;20405;-69
2022/07/06 00:51:32;;;;;;;3.90;1.30;;;;;;;11.05;93.39;102736.78;5053509;28;20491;-71
2022/07/06 00:54:00;;;;;;;1.40;1.05;;;;;;;11.03;92.89;102731.56;5052421;28;20032;-69
2022/07/06 00:56:29;;;;;;;2.75;1.08;;;;;;;11.03;92.59;102747.56;5052650;28;20471;-69
2022/07/06 00:58:55;;;;;;;6.20;1.27;;;;;;;11.03;92.43;102736.00;5053000;28;20389;-69
2022/07/06 01:01:21;;;;;;;1.17;1.00;;;;;;;10.99;92.68;102737.16;5053658;28;20040;-69
2022/07/06 01:03:46;;;;;;;3.47;0.90;;;;;;;10.93;92.75;102739.25;5053290;28;20083;-70
2022/07/06 01:06:11;;;;;;;2.47;0.70;;;;;;;10.93;92.85;102749.06;5053485;28;20467;-68
2022/07/06 01:08:38;;;;;;;1.95;1.08;;;;;;;10.94;93.10;102743.66;5053124;28;20436;-70
2022/07/06 01:11:03;;;;;;;2.83;0.80;;;;;;;10.94;93.05;102737.44;5053827;28;20115;-70
2022/07/06 01:13:31;;;;;;;1.60;0.90;;;;;;;10.93;93.17;102749.91;5053006;28;20504;-69
2022/07/06 01:15:56;;;;;;;1.45;0.80;;;;;;;10.94;92.96;102740.97;5053400;28;20029;-71
2022/07/06 01:18:22;;;;;;;2.03;1.00;;;;;;;10.93;93.03;102735.75;5052389;28;20035;-71
2022/07/06 01:20:47;;;;;;;2.45;1.10;;;;;;;10.94;92.83;102734.78;5053069;28;20037;-70
2022/07/06 01:23:13;;;;;;;1.73;0.90;;;;;;;10.92;92.97;102731.38;5053700;28;20453;-72
2022/07/06 01:25:38;;;;;;;4.18;1.10;;;;;;;10.91;93.02;102730.53;5053183;28;20134;-69
2022/07/06 01:28:05;;;;;;;6.25;1.20;;;;;;;10.92;93.12;102736.69;5052814;28;20047;-69
2022/07/06 01:30:30;;;;;;;2.30;0.90;;;;;;;10.93;92.99;102725.09;5053141;28;20057;-69
2022/07/06 01:32:56;;;;;;;4.05;0.85;;;;;;;10.94;92.48;102729.44;5052928;28;20130;-69
2022/07/06 01:35:23;;;;;;;2.53;0.95;;;;;;;10.93;92.85;102728.59;5053258;28;20033;-70
2022/07/06 01:37:48;;;;;;;1.42;0.90;;;;;;;10.90;93.12;102734.13;5052712;28;20118;-70
2022/07/06 01:40:14;;;;;;;3.03;1.10;;;;;;;10.85;92.88;102720.25;5052925;28;20060;-69
2022/07/06 01:42:40;;;;;;;1.83;0.90;;;;;;;10.83;92.85;102729.28;5052928;28;20033;-71
2022/07/06 01:45:06;;;;;;;1.38;0.60;;;;;;;10.79;93.75;102735.72;5051645;28;20457;-70
2022/07/06 01:47:32;;;;;;;3.35;1.20;;;;;;;10.73;93.96;102726.31;5053202;28;20120;-69
2022/07/06 01:49:59;;;;;;;2.13;0.80;;;;;;;10.67;93.94;102726.69;5052573;28;20120;-69
2022/07/06 01:52:25;;;;;;;2.42;0.80;;;;;;;10.61;93.90;102727.06;5052757;28;20021;-69
2022/07/06 01:54:51;;;;;;;3.85;0.93;;;;;;;10.55;94.50;102728.28;5053069;28;20079;-69
2022/07/06 01:57:16;;;;;;;2.35;1.27;;;;;;;10.50;94.79;102725.06;5056986;28;20509;-69
2022/07/06 01:59:41;;;;;;;1.50;0.77;;;;;;;10.46;94.89;102723.53;5055261;28;20481;-69
2022/07/06 02:02:07;;;;;;;2.22;0.75;;;;;;;10.44;95.44;102728.94;5055491;28;20082;-69
2022/07/06 02:04:32;;;;;;;0.70;0.70;;;;;;;10.39;95.53;102725.72;5056779;28;20235;-69
2022/07/06 02:06:57;;;;;;;2.58;0.90;;;;;;;10.38;95.45;102724.84;5056886;28;20025;-69
2022/07/06 02:09:23;;;;;;;2.13;0.85;;;;;;;10.38;95.39;102727.50;5038838;28;20127;-69
2022/07/06 02:11:48;;;;;;;2.47;0.77;;;;;;;10.38;95.18;102724.84;5055238;28;20067;-72
2022/07/06 02:14:14;;;;;;;2.67;0.88;;;;;;;10.39;95.56;102726.56;5056415;28;20037;-69
2022/07/06 02:16:39;;;;;;;0.85;0.75;;;;;;;10.39;95.43;102725.72;5056542;28;20469;-70
2022/07/06 02:19:05;;;;;;;2.55;0.98;;;;;;;10.38;95.24;102734.63;5055154;28;20043;-69
2022/07/06 02:21:30;;;;;;;2.03;0.80;;;;;;;10.35;95.72;102727.69;5056184;28;20036;-70
2022/07/06 02:23:55;;;;;;;4.93;0.98;;;;;;;10.35;96.21;102729.50;5054867;28;20037;-69
2022/07/06 02:26:21;;;;;;;0.85;0.60;;;;;;;10.34;96.02;102728.63;5056580;28;20111;-69
2022/07/06 02:28:47;;;;;;;1.95;0.82;;;;;;;10.32;95.78;102727.84;5056415;28;20457;-69
2022/07/06 02:31:13;;;;;;;1.27;0.70;;;;;;;10.31;96.23;102727.94;5056080;28;20033;-72
2022/07/06 02:33:40;;;;;;;1.45;0.82;;;;;;;10.36;96.32;102723.22;5056174;28;20032;-68
2022/07/06 02:36:05;;;;;;;0.95;0.80;;;;;;;10.37;96.46;102731.09;5055793;28;20515;-68
2022/07/06 02:38:31;;;;;;;2.50;0.95;;;;;;;10.37;96.62;102727.59;5056097;28;20094;-69
2022/07/06 02:40:56;;;;;;;4.93;0.88;;;;;;;10.35;96.29;102716.19;5055993;28;20036;-71
2022/07/06 02:43:21;;;;;;;7.43;0.80;;;;;;;10.34;96.19;102725.13;5054473;28;20068;-69
2022/07/06 02:45:47;;;;;;;1.00;0.63;;;;;;;10.34;97.04;102730.44;5055827;28;20033;-70
2022/07/06 02:48:12;;;;;;;1.05;0.70;;;;;;;10.38;96.93;102731.97;5056158;28;20453;-69
2022/07/06 02:50:37;;;;;;;1.42;0.80;;;;;;;10.39;96.88;102731.03;5054819;28;20025;-70
2022/07/06 02:53:03;;;;;;;2.28;0.70;;;;;;;10.41;97.55;102737.97;5055957;28;20036;-70
2022/07/06 02:55:28;;;;;;;1.48;0.77;;;;;;;10.50;98.57;102733.03;5056008;28;20033;-69
2022/07/06 02:57:54;;;;;;;3.35;1.08;;;;;;;10.57;98.15;102729.06;5055076;28;20025;-69
2022/07/06 03:00:19;;;;;;;1.75;0.88;;;;;;;10.63;97.90;102723.38;5055808;28;20033;-70
2022/07/06 03:02:45;;;;;;;1.10;0.80;;;;;;;10.70;97.81;102727.38;5054711;28;20067;-70
2022/07/06 03:05:10;;;;;;;4.90;0.90;;;;;;;10.77;97.31;102726.03;5055995;28;20037;-70
2022/07/06 03:07:36;;;;;;;3.20;0.93;;;;;;;10.86;96.90;102724.59;5055228;28;20069;-70
2022/07/06 03:10:01;;;;;;;2.80;0.85;;;;;;;10.91;96.26;102725.19;5054387;28;20084;-69
2022/07/06 03:12:27;;;;;;;3.22;0.80;;;;;;;11.01;95.81;102730.78;5055661;28;20040;-70
2022/07/06 03:14:52;;;;;;;1.85;0.80;;;;;;;11.10;94.48;102730.19;5055413;28;20043;-70
2022/07/06 03:17:17;;;;;;;1.58;0.90;;;;;;;11.20;93.05;102733.16;5055308;28;20374;-70
2022/07/06 03:19:43;;;;;;;1.27;0.50;;;;;;;11.26;92.24;102734.59;5054793;28;20369;-70
2022/07/06 03:22:08;;;;;;;2.50;0.80;;;;;;;11.31;91.67;102742.28;5054093;28;20037;-70
2022/07/06 03:24:33;;;;;;;2.72;0.82;;;;;;;11.36;90.64;102730.38;5055221;28;20033;-70
2022/07/06 03:26:59;;;;;;;1.38;0.80;;;;;;;11.42;90.50;102730.00;5055203;28;20037;-70
2022/07/06 03:29:24;;;;;;;3.38;0.80;;;;;;;11.46;89.44;102727.97;5055169;28;20454;-70
2022/07/06 03:31:49;;;;;;;4.47;1.17;;;;;;;11.51;89.29;102725.00;5055360;28;20032;-70
2022/07/06 03:34:15;;;;;;;1.75;0.93;;;;;;;11.53;88.87;102723.09;5055549;28;20036;-70
2022/07/06 03:36:40;;;;;;;4.22;1.00;;;;;;;11.56;88.61;102723.75;5053748;28;20029;-70
2022/07/06 03:39:06;;;;;;;2.47;0.88;;;;;;;11.58;88.03;102727.16;5055051;28;20060;-70
2022/07/06 03:41:32;;;;;;;1.48;0.82;;;;;;;11.59;87.59;102726.22;5055012;28;20124;-70
2022/07/06 03:43:58;;;;;;;1.58;0.80;;;;;;;11.65;87.77;102725.81;5055086;28;20134;-70
2022/07/06 03:46:23;;;;;;;2.90;1.30;;;;;;;11.72;87.21;102720.06;5054170;28;20410;-70
2022/07/06 03:48:49;;;;;;;1.58;0.82;;;;;;;11.77;87.16;102723.31;5055150;28;20144;-70
2022/07/06 03:51:14;;;;;;;0.70;0.70;;;;;;;11.85;87.04;102718.31;5054510;28;20034;-70
2022/07/06 03:53:40;;;;;;;6.05;1.00;;;;;;;11.92;86.81;102718.78;5053658;28;20025;-70
2022/07/06 03:58:49;;;;;;;1.67;0.82;;;;;;;12.12;85.77;102714.78;5053782;28;20109;-70
2022/07/06 04:01:14;;;;;;;0.60;0.57;;;;;;;12.21;84.72;102714.19;5053551;28;20041;-69
2022/07/06 04:03:40;;;;;;;1.67;0.93;;;;;;;12.27;83.79;102718.25;5053519;28;20033;-69
2022/07/06 04:06:05;;;;;;;1.63;0.90;;;;;;;12.34;82.94;102716.88;5055031;28;20543;-73
2022/07/06 04:08:31;;;;;;;1.92;0.80;;;;;;;12.38;82.75;102721.03;5054624;28;20033;-70
2022/07/06 04:10:56;;;;;;;1.33;0.68;;;;;;;12.40;82.26;102720.94;5054235;28;20104;-70
2022/07/06 04:13:22;;;;;;;1.88;0.80;;;;;;;12.40;82.07;102718.25;5054736;28;20044;-69
2022/07/06 04:15:47;;;;;;;1.75;0.80;;;;;;;12.40;82.03;102727.13;5054387;28;20035;-69
2022/07/06 04:18:13;;;;;;;1.63;0.80;;;;;;;12.39;82.23;102722.75;5053396;28;20053;-71
2022/07/06 04:20:38;;;;;;;1.33;0.73;;;;;;;12.39;82.01;102722.75;5054261;28;20060;-70
2022/07/06 04:23:03;;;;;;;3.60;0.80;;;;;;;12.39;82.38;102722.75;5054563;28;20205;-70
2022/07/06 04:25:29;;;;;;;1.23;0.73;;;;;;;12.41;81.69;102717.31;5054575;28;20036;-70
2022/07/06 04:27:54;;;;;;;2.50;0.82;;;;;;;12.43;81.41;102710.88;5053657;28;20037;-70
2022/07/06 04:30:21;;;;;;;2.70;0.75;;;;;;;12.44;81.65;102717.09;5053671;28;20029;-70
2022/07/06 04:32:46;;;;;;;1.75;0.80;;;;;;;12.44;80.39;102717.09;5053587;28;20029;-70
2022/07/06 04:35:12;;;;;;;2.08;0.68;;;;;;;12.46;80.54;102717.84;5054052;28;20035;-71
2022/07/06 04:37:37;;;;;;;0.93;0.60;;;;;;;12.48;80.14;102715.91;5053555;28;20380;-70
2022/07/06 04:40:03;;;;;;;1.77;0.73;;;;;;;12.48;79.38;102711.44;5053681;28;20499;-70
2022/07/06 04:42:29;;;;;;;3.17;0.80;;;;;;;12.47;79.23;102720.41;5053632;28;20047;-71
2022/07/06 04:44:54;;;;;;;1.85;0.82;;;;;;;12.45;79.88;102718.78;5053853;28;20049;-70
2022/07/06 04:47:19;;;;;;;3.03;0.82;;;;;;;12.42;79.97;102725.22;5054030;28;20084;-69
2022/07/06 04:49:45;;;;;;;5.32;0.95;;;;;;;12.42;79.79;102725.22;5052385;28;20521;-69
2022/07/06 04:52:10;;;;;;;3.08;1.00;;;;;;;12.42;80.34;102721.69;5053484;28;20041;-69
2022/07/06 04:54:36;;;;;;;2.33;0.90;;;;;;;12.42;80.51;102724.34;5054226;28;20462;-69
2022/07/06 04:57:01;;;;;;;1.48;0.80;;;;;;;12.41;80.80;102722.66;5053714;28;20029;-69
2022/07/06 04:59:27;;;;;;;2.15;0.93;;;;;;;12.39;81.24;102725.44;5053734;28;20112;-69
2022/07/06 05:01:52;;;;;;;2.10;1.05;;;;;;;12.38;81.30;102726.38;5052173;28;20118;-69
2022/07/06 05:04:20;;;;;;;1.00;0.90;;;;;;;12.38;81.25;102731.72;5053572;28;20047;-70
2022/07/06 05:06:46;;;;;;;1.33;0.70;;;;;;;12.39;81.34;102730.78;5053327;28;20040;-70
2022/07/06 05:09:13;;;;;;;1.42;0.85;;;;;;;12.49;80.82;102739.00;5052259;28;20037;-70
2022/07/06 05:11:38;;;;;;;4.15;1.45;;;;;;;12.55;81.26;102735.88;5053293;28;20079;-69
2022/07/06 05:14:05;;;;;;;4.15;1.55;;;;;;;12.59;81.26;102734.72;5052963;28;20458;-69
2022/07/06 05:16:30;;;;;;;2.85;0.70;;;;;;;12.62;82.04;102733.66;5053219;28;20090;-69
2022/07/06 05:18:56;;;;;;;2.13;0.82;;;;;;;12.65;82.12;102744.13;5053792;28;20033;-70
2022/07/06 05:21:21;;;;;;;3.25;0.93;;;;;;;12.68;81.48;102742.09;5053043;28;20033;-69
2022/07/06 05:23:47;;;;;;;2.65;0.85;;;;;;;12.74;81.08;102740.81;5053168;28;20029;-69
2022/07/06 05:26:12;;;;;;;2.78;0.90;;;;;;;12.80;81.90;102748.41;5053084;28;20033;-69
2022/07/06 05:28:37;;;;;;;1.58;0.80;;;;;;;12.88;81.51;102754.06;5053095;28;20121;-69
2022/07/06 05:31:03;;;;;;;2.28;0.80;;;;;;;12.95;80.98;102753.63;5051664;28;20102;-69
2022/07/06 05:33:28;;;;;;;3.88;0.68;;;;;;;13.01;80.92;102750.53;5035055;28;20124;-70
2022/07/06 05:35:53;;;;;;;3.33;0.90;;;;;;;13.07;80.96;102742.06;5053526;28;20428;-70
2022/07/06 05:38:19;;;;;;;5.32;0.98;;;;;;;13.15;80.39;102744.19;5052687;28;20045;-70
2022/07/06 05:40:45;;;;;;;2.58;0.90;;;;;;;13.22;80.00;102745.47;5052994;28;20060;-70
2022/07/06 05:43:10;;;;;;;1.05;0.88;;;;;;;13.30;79.10;102740.44;5052826;28;20056;-70
2022/07/06 05:45:36;;;;;;;1.40;0.90;;;;;;;13.42;78.85;102745.88;5053517;28;20048;-70
2022/07/06 05:50:45;;;;;;;1.58;0.80;;;;;;;13.70;77.70;102744.72;5052712;28;20460;-69
2022/07/06 05:53:10;;;;;;;3.95;0.95;;;;;;;13.86;77.70;102745.28;5052682;28;20465;-70
2022/07/06 05:55:36;;;;;;;1.50;0.70;;;;;;;14.02;76.92;102745.00;5051621;28;20037;-70
2022/07/06 05:58:01;;;;;;;1.90;0.70;;;;;;;14.17;75.79;102748.34;5052989;28;20464;-69
2022/07/06 06:00:28;;;;;;;1.67;0.88;;;;;;;14.34;75.26;102746.22;5052751;28;20354;-70
2022/07/06 06:02:53;;;;;;;7.88;1.00;;;;;;;14.52;74.83;102747.47;5052683;28;20091;-70
2022/07/06 06:05:20;;;;;;;4.05;0.80;;;;;;;14.71;74.05;102743.41;5052480;28;20021;-70
2022/07/06 06:07:48;;;;;;;3.20;0.85;;;;;;;14.90;73.35;102757.06;5052993;28;20063;-70
2022/07/06 06:10:14;;;;;;;5.53;0.80;;;;;;;15.11;71.84;102742.94;5052770;28;20079;-70
2022/07/06 06:12:40;;;;;;;2.00;0.90;;;;;;;15.33;70.30;102742.91;5052610;28;20025;-70
2022/07/06 06:15:07;;;;;;;2.45;0.80;;;;;;;15.56;70.26;102732.13;5052704;28;20473;-69
2022/07/06 06:17:33;;;;;;;2.67;0.68;;;;;;;15.76;67.10;102749.25;5052262;28;20033;-70
2022/07/06 06:19:59;;;;;;;1.58;0.73;;;;;;;15.91;65.76;102747.16;5051465;28;20041;-70
2022/07/06 06:22:24;;;;;;;4.90;0.98;;;;;;;16.02;65.80;102751.66;5052581;28;20029;-71
2022/07/06 06:24:50;;;;;;;2.33;1.13;;;;;;;16.08;65.81;102752.94;5052633;28;20457;-71
2022/07/06 06:27:15;;;;;;;2.20;0.63;;;;;;;16.25;64.47;102751.53;5052691;28;20120;-71
2022/07/06 06:29:44;;;;;;;1.00;0.70;;;;;;;16.40;62.45;102752.91;5053457;28;20056;-71
2022/07/06 06:32:11;;;;;;;1.52;0.90;;;;;;;16.55;63.06;102759.66;5052528;28;20033;-71
2022/07/06 06:34:37;;;;;;;1.05;0.60;;;;;;;16.63;62.59;102752.78;5052177;28;20037;-71
2022/07/06 06:37:02;;;;;;;2.13;0.70;;;;;;;16.75;62.97;102754.41;5052209;28;20102;-71
2022/07/06 06:39:28;;;;;;;1.27;0.60;;;;;;;16.85;60.64;102752.59;5051150;28;20029;-70
2022/07/06 06:41:53;;;;;;;1.17;0.47;;;;;;;16.90;59.22;102754.94;5052956;28;20033;-69
2022/07/06 06:44:19;;;;;;;1.17;0.70;;;;;;;17.01;58.09;102754.84;5056173;28;20049;-68
2022/07/06 06:46:45;;;;;;;0.88;0.52;;;;;;;17.10;57.52;102755.88;5054711;28;20081;-70
2022/07/06 06:49:10;;;;;;;1.25;0.30;;;;;;;17.16;55.80;102758.00;5055968;28;20041;-71
2022/07/06 06:51:38;;;;;;;1.65;0.68;;;;;;;17.17;56.76;102756.19;5055429;28;20033;-77
2022/07/06 06:54:03;;;;;;;0.82;0.57;;;;;;;17.30;57.02;102747.88;5054967;28;20033;-74
2022/07/06 06:56:28;;;;;;;1.70;0.52;;;;;;;17.34;54.58;102749.31;5054405;28;20037;-77
2022/07/06 06:58:54;;;;;;;1.73;0.60;;;;;;;17.44;54.78;102750.19;5056200;28;20110;-77
2022/07/06 07:01:19;;;;;;;3.33;1.13;;;;;;;17.52;54.12;102758.41;5055638;28;20114;-73
2022/07/06 07:03:45;;;;;;;2.30;0.70;;;;;;;17.66;53.18;102759.00;5055446;28;20461;-76
2022/07/06 07:06:10;;;;;;;1.85;0.68;;;;;;;17.82;53.05;102756.59;5055726;28;20502;-76
2022/07/06 07:08:35;;;;;;;2.15;0.80;;;;;;;18.01;53.00;102754.97;5055485;28;20040;-73
2022/07/06 07:11:01;;;;;;;1.85;0.95;;;;;;;18.27;51.82;102752.50;5055118;28;20065;-75
2022/07/06 07:13:26;;;;;;;2.40;0.93;;;;;;;18.41;52.11;102759.31;5055665;28;20036;-75
2022/07/06 07:15:52;;;;;;;0.60;0.40;;;;;;;18.53;51.85;102752.78;5054251;28;20033;-77
2022/07/06 07:18:17;;;;;;;1.67;0.47;;;;;;;18.62;50.71;102753.75;5055746;28;20033;-74
2022/07/06 07:20:42;;;;;;;1.77;0.60;;;;;;;18.66;50.09;102761.41;5055656;28;20033;-76
2022/07/06 07:23:08;;;;;;;1.27;0.70;;;;;;;18.64;49.18;102752.59;5053723;28;20037;-78
2022/07/06 07:25:34;;;;;;;2.30;0.63;;;;;;;18.67;51.75;102756.84;5054949;28;20052;-77
2022/07/06 07:27:59;;;;;;;1.60;0.50;;;;;;;18.79;48.86;102758.34;5054521;28;20386;-75
2022/07/06 07:30:25;;;;;;;2.13;0.80;;;;;;;18.87;47.43;102765.78;5055322;28;20041;-76
2022/07/06 07:32:50;;;;;;;1.58;0.50;;;;;;;19.01;48.80;102761.72;5054998;28;20081;-73
2022/07/06 07:35:16;;;;;;;1.23;0.60;;;;;;;19.19;48.61;102761.78;5055213;28;20155;-75
2022/07/06 07:37:41;;;;;;;2.30;0.50;;;;;;;19.36;48.05;102757.44;5055428;28;20130;-77
2022/07/06 07:40:07;;;;;;;0.98;0.55;;;;;;;19.36;47.28;102752.91;5056501;28;20036;-75
2022/07/06 07:42:33;;;;;;;0.60;0.55;;;;;;;19.32;46.93;102750.66;5055608;28;20127;-87
2022/07/06 07:44:58;;;;;;;0.95;0.63;;;;;;;19.52;48.86;102748.69;5055054;28;20053;-75
2022/07/06 07:47:24;;;;;;;0.98;0.60;;;;;;;19.83;47.31;102743.78;5054941;28;20114;-77
2022/07/06 07:49:49;;;;;;;1.85;0.55;;;;;;;20.08;45.93;102744.03;5055177;28;20112;-75
2022/07/06 07:52:15;;;;;;;0.90;0.43;;;;;;;20.26;43.31;102747.53;5055015;28;20029;-75
2022/07/06 07:54:40;;;;;;;1.10;0.63;;;;;;;20.34;42.78;102744.03;5053969;28;20116;-76
2022/07/06 07:57:06;;;;;;;2.20;0.50;;;;;;;20.51;42.52;102736.91;5055476;28;20452;-75
2022/07/06 07:59:31;;;;;;;1.85;0.73;;;;;;;20.60;40.99;102735.97;5055483;28;20533;-76
2022/07/06 08:01:57;;;;;;;1.13;0.40;;;;;;;20.53;39.70;102736.75;5054738;28;20041;-75
2022/07/06 08:04:22;;;;;;;1.90;0.35;;;;;;;20.66;41.57;102731.81;5054585;28;20044;-77
2022/07/06 08:06:48;;;;;;;0.70;0.52;;;;;;;20.64;40.74;102728.34;5054813;28;20464;-76
2022/07/06 08:09:14;;;;;;;1.70;0.30;;;;;;;20.60;40.46;102725.13;5054885;28;20536;-75
2022/07/06 08:11:39;;;;;;;1.08;0.52;;;;;;;20.54;41.94;102716.81;5054994;28;20480;-81
2022/07/06 08:14:05;;;;;;;2.22;0.50;;;;;;;20.76;40.29;102728.97;5054048;28;20090;-79
2022/07/06 08:16:31;;;;;;;1.30;0.40;;;;;;;21.09;41.47;102724.56;5054991;28;20032;-80
2022/07/06 08:18:57;;;;;;;0.43;0.30;;;;;;;21.55;37.81;102726.06;5054761;28;20073;-79
2022/07/06 08:21:23;;;;;;;0.90;0.47;;;;;;;21.81;37.87;102728.63;5054945;28;20122;-77
2022/07/06 08:23:48;;;;;;;1.35;0.52;;;;;;;21.83;38.42;102727.44;5055156;28;20029;-81
2022/07/06 08:26:14;;;;;;;0.75;0.65;;;;;;;21.87;39.57;102727.97;5056906;28;20385;-82
2022/07/06 08:28:39;;;;;;;1.77;0.45;;;;;;;21.78;38.29;102719.00;5056477;28;20033;-77
2022/07/06 08:31:05;;;;;;;0.55;0.50;;;;;;;21.58;39.81;102723.88;5054634;28;20067;-79
2022/07/06 08:33:30;;;;;;;1.60;0.60;;;;;;;21.52;39.31;102719.13;5055917;28;20036;-76
2022/07/06 08:35:56;;;;;;;3.17;0.68;;;;;;;21.43;38.32;102720.94;5055473;28;20033;-74
2022/07/06 08:38:21;;;;;;;1.17;0.50;;;;;;;21.30;38.41;102721.41;5054923;28;20108;-78
2022/07/06 08:40:49;;;;;;;1.33;0.47;;;;;;;21.14;38.75;102727.63;5054555;28;20037;-74
2022/07/06 08:43:15;;;;;;;1.80;0.70;;;;;;;21.07;38.42;102721.16;5054177;28;20107;-78
2022/07/06 08:45:43;;;;;;;1.30;0.50;;;;;;;21.18;39.30;102724.59;5054155;28;20037;-78
2022/07/06 08:48:10;;;;;;;1.52;0.70;;;;;;;21.19;39.77;102724.41;5054190;28;20057;-76
2022/07/06 08:50:35;;;;;;;6.03;0.70;;;;;;;21.20;39.37;102723.41;5053298;28;20037;-77
2022/07/06 08:53:02;;;;;;;1.38;0.40;;;;;;;21.23;39.87;102720.38;5052127;28;20025;-78
2022/07/06 08:55:27;;;;;;;0.38;0.32;;;;;;;21.35;39.04;102720.06;5053445;28;20029;-76
2022/07/06 08:57:55;;;;;;;1.25;0.60;;;;;;;21.39;38.85;102727.72;5053483;28;20392;-76
2022/07/06 09:00:22;;;;;;;2.80;0.50;;;;;;;21.43;38.73;102728.22;5053534;28;20034;-77
2022/07/06 09:02:50;;;;;;;1.15;0.60;;;;;;;21.37;38.19;102734.28;5053357;28;20093;-77
2022/07/06 09:05:16;;;;;;;1.60;0.82;;;;;;;21.40;39.13;102732.09;5052889;28;20057;-75
2022/07/06 09:07:45;;;;;;;1.25;0.50;;;;;;;21.46;37.06;102722.47;5052413;28;20061;-79
2022/07/06 09:10:11;;;;;;;2.58;0.90;;;;;;;21.64;37.28;102722.34;5053283;28;20021;-81
2022/07/06 09:12:37;;;;;;;1.02;0.60;;;;;;;22.02;36.27;102722.72;5053222;28;20033;-75
2022/07/06 09:15:03;;;;;;;1.15;0.60;;;;;;;22.28;35.26;102729.81;5052986;28;20114;-76
2022/07/06 09:17:29;;;;;;;1.33;0.40;;;;;;;22.42;33.62;102734.56;5052947;28;20033;-76
2022/07/06 09:19:56;;;;;;;0.60;0.50;;;;;;;22.65;34.96;102728.44;5051854;28;20120;-71
2022/07/06 09:22:31;;;;;;;1.23;0.45;;;;;;;22.49;33.41;102732.84;5051494;28;20075;-70
2022/07/06 09:25:10;;;;;;;0.68;0.60;;;;;;;22.68;36.35;102739.78;5052751;28;20524;-73
2022/07/06 09:27:47;;;;;;;1.48;0.60;;;;;;;22.87;35.09;102740.38;5052644;28;20103;-72
2022/07/06 09:30:14;;;;;;;2.53;0.73;;;;;;;22.86;33.21;102744.97;5053108;28;20112;-70
2022/07/06 09:32:50;;;;;;;3.95;0.70;;;;;;;22.70;34.52;102751.28;5053006;28;20060;-76
2022/07/06 09:35:29;;;;;;;0.65;0.40;;;;;;;22.58;33.40;102746.41;5052158;28;20029;-72
2022/07/06 09:38:11;;;;;;;3.08;0.85;;;;;;;22.20;34.21;102749.66;5051865;28;20351;-71
2022/07/06 09:40:39;;;;;;;0.50;0.47;;;;;;;22.01;35.38;102753.56;5052834;28;20025;-70
2022/07/06 09:43:31;;;;;;;0.75;0.40;;;;;;;22.11;36.47;102754.22;5051306;28;20076;-70
2022/07/06 09:45:57;;;;;;;2.10;0.70;;;;;;;22.54;34.23;102756.75;5050768;28;20048;-70
2022/07/06 09:48:24;;;;;;;1.48;0.60;;;;;;;23.05;35.56;102753.75;5053097;28;20025;-70
2022/07/06 09:50:53;;;;;;;0.88;0.60;;;;;;;23.79;33.20;102761.50;5052506;28;20041;-71
2022/07/06 09:53:19;;;;;;;7.63;0.70;;;;;;;24.14;32.06;102750.19;5053161;28;20045;-70
2022/07/06 09:55:46;;;;;;;1.58;0.50;;;;;;;24.35;30.67;102746.78;5053273;28;20058;-71
2022/07/06 09:58:12;;;;;;;1.08;0.52;;;;;;;24.76;31.34;102747.22;5052262;28;20033;-71
2022/07/06 10:00:38;;;;;;;2.15;0.70;;;;;;;25.31;27.65;102739.56;5052710;28;20445;-71
2022/07/06 10:03:04;;;;;;;1.15;0.50;;;;;;;25.73;28.16;102738.97;5052674;28;20036;-71
2022/07/06 10:05:31;;;;;;;1.50;0.70;;;;;;;25.17;28.82;102743.16;5052404;28;20037;-71
2022/07/06 10:08:00;;;;;;;1.85;0.80;;;;;;;24.63;31.22;102744.31;5052347;28;20496;-72
2022/07/06 10:10:28;;;;;;;1.20;0.90;;;;;;;24.68;30.37;102750.06;5052330;28;20025;-71
2022/07/06 10:12:57;;;;;;;2.35;0.70;;;;;;;25.76;29.08;102746.75;5052348;28;20037;-72
2022/07/06 10:15:27;;;;;;;1.17;0.40;;;;;;;26.77;27.05;102742.97;5052869;28;20029;-71
2022/07/06 10:17:54;;;;;;;2.22;0.93;;;;;;;27.53;25.92;102734.69;5054603;28;20053;-74
2022/07/06 10:20:22;;;;;;;1.55;0.90;;;;;;;28.40;26.15;102726.50;5056593;28;20473;-71
2022/07/06 10:22:48;;;;;;;2.08;0.70;;;;;;;28.30;26.34;102729.66;5055162;28;20380;-71
2022/07/06 10:25:18;;;;;;;2.65;0.82;;;;;;;28.66;25.79;102725.66;5056344;28;20043;-72
2022/07/06 10:27:46;;;;;;;1.08;0.60;;;;;;;28.34;25.26;102732.00;5056532;28;20041;-71
2022/07/06 10:30:13;;;;;;;2.20;0.80;;;;;;;28.23;25.64;102722.53;5056592;28;20381;-71
2022/07/06 10:32:41;;;;;;;3.00;0.85;;;;;;;28.23;26.95;102725.25;5055183;28;20036;-71
2022/07/06 10:35:07;;;;;;;1.30;0.80;;;;;;;28.24;26.30;102713.25;5056101;28;20033;-70
2022/07/06 10:37:33;;;;;;;2.55;1.02;;;;;;;28.73;25.53;102717.38;5056044;28;20116;-70
2022/07/06 10:42:54;;;;;;;3.28;0.90;;;;;;;29.52;25.14;102723.56;5055791;28;20500;-72
2022/07/06 10:45:41;;;;;;;5.40;1.25;;;;;;;28.80;26.11;102717.38;5056046;28;20071;-71
2022/07/06 10:48:15;;;;;;;2.35;0.93;;;;;;;28.70;25.77;102712.34;5056043;28;20029;-72
2022/07/06 10:50:48;;;;;;;3.47;1.23;;;;;;;29.20;25.76;102706.22;5056471;28;20072;-71
2022/07/06 10:53:23;;;;;;;5.22;1.58;;;;;;;28.77;26.33;102709.59;5055782;28;20039;-72
2022/07/06 10:55:51;;;;;;;3.75;1.20;;;;;;;27.91;27.45;102708.63;5054914;28;20059;-71
2022/07/06 10:58:41;;;;;;;6.50;1.10;;;;;;;27.65;27.94;102707.56;5055815;28;20056;-72
2022/07/06 11:01:08;;;;;;;2.42;1.10;;;;;;;28.08;26.92;102690.78;5056203;28;20455;-71
2022/07/06 11:03:45;;;;;;;2.25;1.20;;;;;;;28.60;26.44;102688.13;5055811;28;20041;-71
2022/07/06 11:06:16;;;;;;;3.55;1.33;;;;;;;28.93;26.51;102691.81;5056157;28;20146;-72
2022/07/06 11:08:42;;;;;;;2.88;1.02;;;;;;;29.05;25.37;102695.53;5056543;28;20086;-73
2022/07/06 11:11:21;;;;;;;5.25;1.02;;;;;;;29.25;24.52;102687.25;5056168;28;20029;-72
2022/07/06 11:13:51;;;;;;;5.43;1.17;;;;;;;28.81;25.37;102688.91;5055721;28;20108;-73
2022/07/06 11:16:17;;;;;;;1.20;0.80;;;;;;;27.98;25.81;102695.84;5055830;28;20032;-71
2022/07/06 11:19:04;;;;;;;3.47;1.08;;;;;;;28.09;27.17;102683.41;5055354;28;20090;-73
2022/07/06 11:21:39;;;;;;;2.95;0.98;;;;;;;28.73;26.80;102665.34;5055596;28;20021;-71
2022/07/06 11:24:06;;;;;;;1.65;0.80;;;;;;;28.27;25.23;102671.78;5055440;28;20028;-70
2022/07/06 11:26:35;;;;;;;2.88;1.00;;;;;;;28.71;25.71;102666.63;5054162;28;20053;-71
2022/07/06 11:29:03;;;;;;;4.72;1.20;;;;;;;28.84;24.78;102661.94;5055090;28;20028;-76
2022/07/06 11:31:28;;;;;;;3.00;0.77;;;;;;;29.28;25.45;102664.88;5054978;28;20474;-72